Salt Lake City, Utah
Traffic Map
Current Weather Conditions
Salt Lake City, Utah
Broken Clouds
Broken Clouds

Feels Like: 1°
Wind Chill: Ceiling: 9500
Heat Index: Visibility: 10mi
Dew Point: Wind: 10mph
Humidity: 77% Direction: 350° (N)
Pressure: 30.02in Gusts: 0mph
Raw Report DataKSLC 280854Z 35009KT 10SM FEW055 BKN095 04/01 A3002 RMK AO2 SLP160 T00440006 51008
Traffic Incident Summary
Active as of:
Severity:
Category:
InformationThere was an issue retrieving the traffic information for this location. Please try a different location or try again shortly.
Advertisements
Track Severe Weather on mobile